DAL2033 EIDW-KJFK
Flight info
| Callsign | DAL2033 |
|---|---|
| Flight time | N/A |
| Altitude | 38000 |
| Route | PELIG2J PELIG DCT DOGAL/M084F390 NATA ALLRY/N0481F400 N468A TUSKY DCT PLYMM PARCH4 |
| Aircraft | A359/H-SDE2E3GHIJ3J4J5LM1ORWXY/LB1D1 |
Departure
| Time | 2026-05-01 11:56 |
|---|---|
| Airport | Dublin Airport (EIDW) |
Arrival
| Time | N/A |
|---|---|
| Airport | John F. Kennedy International Airport (KJFK) |
| Time | Latitude | Longitude | Altitude | Speed | Heading |
|---|---|---|---|---|---|
| 2026-05-01 11:01 | 53.42442 | -6.24363 | 226 ft | 0 kts | 134° |
| 2026-05-01 11:39 | 53.42449 | -6.24375 | 226 ft | 2 kts | 136° |
| 2026-05-01 11:39 | 53.42461 | -6.24394 | 228 ft | 2 kts | 141° |
| 2026-05-01 11:39 | 53.42474 | -6.24410 | 228 ft | 2 kts | 148° |
| 2026-05-01 11:40 | 53.42489 | -6.24422 | 230 ft | 2 kts | 165° |
| 2026-05-01 11:40 | 53.42506 | -6.24425 | 231 ft | 2 kts | 195° |
| 2026-05-01 11:40 | 53.42520 | -6.24415 | 232 ft | 1 kts | 213° |
| 2026-05-01 11:40 | 53.42523 | -6.24411 | 233 ft | 0 kts | 213° |
| 2026-05-01 11:46 | 53.42522 | -6.24412 | 232 ft | 2 kts | 214° |
| 2026-05-01 11:46 | 53.42489 | -6.24458 | 229 ft | 8 kts | 222° |
| 2026-05-01 11:47 | 53.42447 | -6.24552 | 225 ft | 12 kts | 240° |
| 2026-05-01 11:47 | 53.42400 | -6.24691 | 225 ft | 15 kts | 235° |
| 2026-05-01 11:47 | 53.42369 | -6.24834 | 227 ft | 10 kts | 294° |
| 2026-05-01 11:47 | 53.42419 | -6.24900 | 226 ft | 9 kts | 333° |
| 2026-05-01 11:48 | 53.42476 | -6.24944 | 226 ft | 10 kts | 337° |
| 2026-05-01 11:48 | 53.42546 | -6.24994 | 228 ft | 12 kts | 336° |
| 2026-05-01 11:48 | 53.42625 | -6.25051 | 224 ft | 13 kts | 336° |
| 2026-05-01 11:48 | 53.42701 | -6.25109 | 224 ft | 10 kts | 330° |
| 2026-05-01 11:49 | 53.42740 | -6.25195 | 225 ft | 9 kts | 315° |
| 2026-05-01 11:49 | 53.42784 | -6.25239 | 226 ft | 6 kts | 336° |
| 2026-05-01 11:49 | 53.42820 | -6.25265 | 227 ft | 5 kts | 338° |
| 2026-05-01 11:49 | 53.42856 | -6.25290 | 228 ft | 6 kts | 338° |
| 2026-05-01 11:50 | 53.42898 | -6.25322 | 228 ft | 7 kts | 333° |
| 2026-05-01 11:50 | 53.42944 | -6.25364 | 229 ft | 7 kts | 331° |
| 2026-05-01 11:50 | 53.42988 | -6.25398 | 230 ft | 7 kts | 338° |
| 2026-05-01 11:50 | 53.43034 | -6.25430 | 231 ft | 8 kts | 338° |
| 2026-05-01 11:51 | 53.43092 | -6.25470 | 230 ft | 10 kts | 337° |
| 2026-05-01 11:51 | 53.43167 | -6.25526 | 229 ft | 13 kts | 335° |
| 2026-05-01 11:51 | 53.43255 | -6.25585 | 227 ft | 15 kts | 343° |
| 2026-05-01 11:51 | 53.43355 | -6.25646 | 225 ft | 13 kts | 346° |
| 2026-05-01 11:52 | 53.43404 | -6.25600 | 225 ft | 5 kts | 73° |
| 2026-05-01 11:52 | 53.43407 | -6.25527 | 225 ft | 7 kts | 92° |
| 2026-05-01 11:52 | 53.43403 | -6.25437 | 225 ft | 8 kts | 94° |
| 2026-05-01 11:52 | 53.43397 | -6.25342 | 225 ft | 8 kts | 95° |
| 2026-05-01 11:53 | 53.43391 | -6.25242 | 226 ft | 9 kts | 95° |
| 2026-05-01 11:53 | 53.43384 | -6.25123 | 226 ft | 12 kts | 95° |
| 2026-05-01 11:53 | 53.43376 | -6.24970 | 228 ft | 14 kts | 95° |
| 2026-05-01 11:53 | 53.43365 | -6.24789 | 228 ft | 18 kts | 95° |
| 2026-05-01 11:54 | 53.43353 | -6.24563 | 225 ft | 20 kts | 95° |
| 2026-05-01 11:54 | 53.43340 | -6.24324 | 223 ft | 22 kts | 95° |
| 2026-05-01 11:54 | 53.43325 | -6.24056 | 220 ft | 22 kts | 95° |
| 2026-05-01 11:54 | 53.43348 | -6.23881 | 222 ft | 13 kts | 32° |
| 2026-05-01 11:55 | 53.43449 | -6.23855 | 214 ft | 16 kts | 350° |
| 2026-05-01 11:55 | 53.43494 | -6.23987 | 216 ft | 9 kts | 275° |
| 2026-05-01 11:55 | 53.43494 | -6.23994 | 215 ft | 0 kts | 275° |
| 2026-05-01 11:55 | 53.43502 | -6.24133 | 225 ft | 41 kts | 275° |
| 2026-05-01 11:56 | 53.43550 | -6.25005 | 228 ft | 107 kts | 276° |
| 2026-05-01 11:56 | 53.43635 | -6.26588 | 231 ft | 164 kts | 275° |
| 2026-05-01 11:56 | 53.43758 | -6.28622 | 655 ft | 176 kts | 276° |
| 2026-05-01 11:56 | 53.44034 | -6.30612 | 1413 ft | 178 kts | 294° |
| 2026-05-01 11:57 | 53.44809 | -6.32339 | 1800 ft | 194 kts | 310° |
| 2026-05-01 11:57 | 53.45449 | -6.33440 | 1951 ft | 204 kts | 313° |
| 2026-05-01 11:57 | 53.46857 | -6.35824 | 2347 ft | 225 kts | 310° |
| 2026-05-01 11:57 | 53.47892 | -6.37951 | 2536 ft | 247 kts | 305° |
| 2026-05-01 11:58 | 53.48941 | -6.40363 | 2830 ft | 262 kts | 302° |
| 2026-05-01 11:58 | 53.49987 | -6.42903 | 3451 ft | 266 kts | 302° |
| 2026-05-01 11:58 | 53.51144 | -6.48571 | 4683 ft | 263 kts | 259° |
| 2026-05-01 11:59 | 53.50545 | -6.51452 | 5236 ft | 263 kts | 240° |
| 2026-05-01 11:59 | 53.49687 | -6.54174 | 5878 ft | 265 kts | 239° |
| 2026-05-01 11:59 | 53.48804 | -6.56907 | 6489 ft | 268 kts | 238° |
| 2026-05-01 12:00 | 53.47008 | -6.62427 | 7817 ft | 268 kts | 237° |
| 2026-05-01 12:00 | 53.46093 | -6.65138 | 8484 ft | 266 kts | 234° |
| 2026-05-01 12:00 | 53.44100 | -6.70366 | 9704 ft | 270 kts | 232° |
| 2026-05-01 12:01 | 53.43044 | -6.73041 | 10261 ft | 273 kts | 231° |
| 2026-05-01 12:01 | 53.41974 | -6.75764 | 10562 ft | 286 kts | 232° |
| 2026-05-01 12:01 | 53.40880 | -6.78590 | 10801 ft | 299 kts | 232° |
| 2026-05-01 12:01 | 53.39730 | -6.81592 | 11063 ft | 312 kts | 233° |
| 2026-05-01 12:02 | 53.38540 | -6.84719 | 11318 ft | 325 kts | 233° |
| 2026-05-01 12:02 | 53.37308 | -6.87964 | 11597 ft | 335 kts | 233° |
| 2026-05-01 12:02 | 53.36053 | -6.91272 | 12028 ft | 339 kts | 233° |
| 2026-05-01 12:02 | 53.34785 | -6.94618 | 12531 ft | 342 kts | 233° |
| 2026-05-01 12:03 | 53.33503 | -6.97989 | 13019 ft | 344 kts | 233° |
| 2026-05-01 12:03 | 53.32213 | -7.01377 | 13518 ft | 347 kts | 233° |
| 2026-05-01 12:03 | 53.30909 | -7.04797 | 13984 ft | 349 kts | 233° |
| 2026-05-01 12:03 | 53.29598 | -7.08227 | 14408 ft | 352 kts | 233° |
| 2026-05-01 12:04 | 53.28276 | -7.11683 | 14846 ft | 354 kts | 233° |
| 2026-05-01 12:04 | 53.26945 | -7.15159 | 15283 ft | 356 kts | 232° |
| 2026-05-01 12:04 | 53.25605 | -7.18654 | 15709 ft | 358 kts | 232° |
| 2026-05-01 12:04 | 53.24255 | -7.22168 | 16156 ft | 361 kts | 232° |
| 2026-05-01 12:05 | 53.22912 | -7.25724 | 16586 ft | 364 kts | 234° |
| 2026-05-01 12:05 | 53.21254 | -7.32308 | 17274 ft | 380 kts | 250° |
| 2026-05-01 12:05 | 53.20873 | -7.36718 | 17682 ft | 391 kts | 261° |
| 2026-05-01 12:06 | 53.21033 | -7.41310 | 18057 ft | 402 kts | 272° |
| 2026-05-01 12:06 | 53.21531 | -7.45934 | 18445 ft | 408 kts | 275° |
| 2026-05-01 12:06 | 53.22152 | -7.50565 | 18831 ft | 411 kts | 277° |
| 2026-05-01 12:06 | 53.22833 | -7.55211 | 19212 ft | 413 kts | 278° |
| 2026-05-01 12:07 | 53.23526 | -7.59872 | 19587 ft | 415 kts | 278° |
| 2026-05-01 12:07 | 53.24212 | -7.64562 | 19953 ft | 416 kts | 277° |
| 2026-05-01 12:07 | 53.24881 | -7.69272 | 20317 ft | 418 kts | 277° |
| 2026-05-01 12:07 | 53.25537 | -7.74004 | 20671 ft | 420 kts | 277° |
| 2026-05-01 12:08 | 53.26186 | -7.78775 | 21010 ft | 422 kts | 276° |
| 2026-05-01 12:08 | 53.26829 | -7.83558 | 21360 ft | 424 kts | 276° |
| 2026-05-01 12:08 | 53.27472 | -7.88379 | 21709 ft | 426 kts | 276° |
| 2026-05-01 12:08 | 53.28116 | -7.93218 | 22043 ft | 428 kts | 276° |
| 2026-05-01 12:09 | 53.28762 | -7.98086 | 22370 ft | 430 kts | 276° |
| 2026-05-01 12:09 | 53.29410 | -8.02984 | 22699 ft | 433 kts | 276° |
| 2026-05-01 12:09 | 53.30059 | -8.07903 | 23028 ft | 435 kts | 276° |
| 2026-05-01 12:09 | 53.30711 | -8.12854 | 23358 ft | 437 kts | 276° |
| 2026-05-01 12:10 | 53.31363 | -8.17820 | 23673 ft | 439 kts | 276° |
| 2026-05-01 12:10 | 53.32674 | -8.27847 | 24208 ft | 443 kts | 276° |
| 2026-05-01 12:10 | 53.33331 | -8.32894 | 24475 ft | 445 kts | 276° |
| 2026-05-01 12:11 | 53.34645 | -8.43061 | 25009 ft | 449 kts | 276° |
| 2026-05-01 12:11 | 53.35303 | -8.48183 | 25279 ft | 451 kts | 276° |
| 2026-05-01 12:11 | 53.35962 | -8.53329 | 25554 ft | 453 kts | 276° |
| 2026-05-01 12:12 | 53.36622 | -8.58504 | 25826 ft | 455 kts | 275° |
| 2026-05-01 12:12 | 53.37281 | -8.63690 | 26098 ft | 457 kts | 275° |
| 2026-05-01 12:12 | 53.37942 | -8.68917 | 26380 ft | 459 kts | 275° |
| 2026-05-01 12:12 | 53.38603 | -8.74153 | 26662 ft | 461 kts | 275° |
| 2026-05-01 12:13 | 53.39267 | -8.79432 | 26943 ft | 463 kts | 275° |
| 2026-05-01 12:13 | 53.39921 | -8.84656 | 27225 ft | 465 kts | 275° |
| 2026-05-01 12:13 | 53.40584 | -8.89976 | 27505 ft | 468 kts | 275° |
| 2026-05-01 12:13 | 53.41248 | -8.95319 | 27782 ft | 470 kts | 275° |
| 2026-05-01 12:14 | 53.41914 | -9.00699 | 28062 ft | 472 kts | 275° |
| 2026-05-01 12:14 | 53.42580 | -9.06107 | 28359 ft | 474 kts | 275° |
| 2026-05-01 12:14 | 53.43246 | -9.11530 | 28642 ft | 477 kts | 275° |
| 2026-05-01 12:14 | 53.43913 | -9.16992 | 28931 ft | 479 kts | 275° |
| 2026-05-01 12:15 | 53.44582 | -9.22484 | 29218 ft | 482 kts | 275° |
| 2026-05-01 12:15 | 53.45251 | -9.28001 | 29511 ft | 484 kts | 275° |
| 2026-05-01 12:15 | 53.45921 | -9.33541 | 29801 ft | 486 kts | 274° |
| 2026-05-01 12:15 | 53.46592 | -9.39118 | 30078 ft | 488 kts | 274° |
| 2026-05-01 12:16 | 53.47263 | -9.44717 | 30305 ft | 491 kts | 274° |
| 2026-05-01 12:16 | 53.47935 | -9.50353 | 30540 ft | 493 kts | 274° |
| 2026-05-01 12:16 | 53.48607 | -9.56009 | 30846 ft | 494 kts | 274° |
| 2026-05-01 12:16 | 53.49278 | -9.61676 | 31073 ft | 495 kts | 274° |
| 2026-05-01 12:17 | 53.49949 | -9.67348 | 31308 ft | 497 kts | 274° |
| 2026-05-01 12:17 | 53.50618 | -9.73055 | 31541 ft | 499 kts | 274° |
| 2026-05-01 12:17 | 53.51286 | -9.78782 | 31770 ft | 501 kts | 274° |
| 2026-05-01 12:17 | 53.51952 | -9.84538 | 32027 ft | 502 kts | 274° |
| 2026-05-01 12:18 | 53.52619 | -9.90299 | 32277 ft | 503 kts | 274° |
| 2026-05-01 12:18 | 53.53286 | -9.96077 | 32502 ft | 504 kts | 274° |
| 2026-05-01 12:18 | 53.53950 | -10.01870 | 32699 ft | 506 kts | 274° |
| 2026-05-01 12:18 | 53.54614 | -10.07683 | 32949 ft | 506 kts | 275° |
| 2026-05-01 12:19 | 53.55273 | -10.13481 | 33291 ft | 504 kts | 275° |
| 2026-05-01 12:19 | 53.55929 | -10.19267 | 33646 ft | 503 kts | 275° |
| 2026-05-01 12:19 | 53.56580 | -10.25041 | 33962 ft | 501 kts | 275° |
| 2026-05-01 12:19 | 53.57225 | -10.30796 | 34246 ft | 500 kts | 275° |
| 2026-05-01 12:20 | 53.57866 | -10.36538 | 34480 ft | 500 kts | 275° |
| 2026-05-01 12:20 | 53.58504 | -10.42288 | 34708 ft | 499 kts | 276° |
| 2026-05-01 12:20 | 53.59138 | -10.48025 | 34942 ft | 498 kts | 276° |
| 2026-05-01 12:20 | 53.59768 | -10.53750 | 35168 ft | 498 kts | 276° |
| 2026-05-01 12:21 | 53.60394 | -10.59476 | 35395 ft | 497 kts | 276° |
| 2026-05-01 12:21 | 53.61019 | -10.65204 | 35613 ft | 497 kts | 276° |
| 2026-05-01 12:21 | 53.61639 | -10.70926 | 35820 ft | 496 kts | 276° |
| 2026-05-01 12:21 | 53.62257 | -10.76644 | 36037 ft | 496 kts | 277° |
| 2026-05-01 12:22 | 53.62870 | -10.82354 | 36231 ft | 496 kts | 277° |
| 2026-05-01 12:22 | 53.63481 | -10.88064 | 36452 ft | 495 kts | 277° |
| 2026-05-01 12:22 | 53.64081 | -10.93700 | 36652 ft | 495 kts | 277° |
| 2026-05-01 12:22 | 53.64686 | -10.99407 | 36849 ft | 494 kts | 277° |
| 2026-05-01 12:23 | 53.65287 | -11.05110 | 37024 ft | 495 kts | 277° |
| 2026-05-01 12:23 | 53.65885 | -11.10810 | 37205 ft | 494 kts | 277° |
| 2026-05-01 12:23 | 53.66481 | -11.16516 | 37397 ft | 494 kts | 277° |
| 2026-05-01 12:23 | 53.67074 | -11.22226 | 37563 ft | 494 kts | 277° |
| 2026-05-01 12:24 | 53.67664 | -11.27930 | 37724 ft | 494 kts | 278° |
| 2026-05-01 12:24 | 53.68251 | -11.33630 | 37896 ft | 494 kts | 278° |
| 2026-05-01 12:24 | 53.68835 | -11.39338 | 38030 ft | 494 kts | 278° |
| 2026-05-01 12:24 | 53.69419 | -11.45065 | 38068 ft | 497 kts | 278° |
| 2026-05-01 12:25 | 53.71170 | -11.62420 | 38061 ft | 501 kts | 278° |
| 2026-05-01 12:26 | 53.72325 | -11.74016 | 38058 ft | 501 kts | 277° |
| 2026-05-01 12:26 | 53.74039 | -11.91437 | 38054 ft | 501 kts | 278° |
| 2026-05-01 12:27 | 53.75724 | -12.08852 | 38053 ft | 501 kts | 278° |
| 2026-05-01 12:28 | 53.77387 | -12.26297 | 38054 ft | 501 kts | 278° |
| 2026-05-01 12:29 | 53.79024 | -12.43759 | 38050 ft | 501 kts | 278° |
| 2026-05-01 12:29 | 53.80636 | -12.61235 | 38051 ft | 502 kts | 277° |
| 2026-05-01 12:30 | 53.82228 | -12.78747 | 38050 ft | 502 kts | 277° |
| 2026-05-01 12:31 | 53.83267 | -12.90379 | 38056 ft | 503 kts | 277° |
| 2026-05-01 12:31 | 53.84300 | -13.02180 | 38059 ft | 504 kts | 277° |
| 2026-05-01 12:32 | 53.85322 | -13.13840 | 38059 ft | 504 kts | 277° |
| 2026-05-01 12:32 | 53.86844 | -13.31456 | 38064 ft | 504 kts | 277° |
| 2026-05-01 12:33 | 53.87842 | -13.43226 | 38066 ft | 505 kts | 277° |
| 2026-05-01 12:33 | 53.88830 | -13.55002 | 38075 ft | 505 kts | 277° |
| 2026-05-01 12:34 | 53.89807 | -13.66788 | 38081 ft | 505 kts | 277° |
| 2026-05-01 12:34 | 53.90772 | -13.78578 | 38081 ft | 504 kts | 277° |
| 2026-05-01 12:35 | 53.91723 | -13.90351 | 38085 ft | 504 kts | 277° |
| 2026-05-01 12:35 | 53.92662 | -14.02138 | 38096 ft | 503 kts | 277° |
| 2026-05-01 12:36 | 53.93588 | -14.13903 | 38104 ft | 503 kts | 277° |
| 2026-05-01 12:36 | 53.94504 | -14.25667 | 38105 ft | 503 kts | 277° |
| 2026-05-01 12:37 | 53.95407 | -14.37437 | 38108 ft | 503 kts | 277° |
| 2026-05-01 12:37 | 53.96298 | -14.49213 | 38114 ft | 502 kts | 277° |
| 2026-05-01 12:38 | 53.97177 | -14.60976 | 38117 ft | 502 kts | 277° |
| 2026-05-01 12:38 | 53.98044 | -14.72757 | 38131 ft | 503 kts | 277° |
| 2026-05-01 12:39 | 53.98901 | -14.84542 | 38127 ft | 502 kts | 277° |
| 2026-05-01 12:39 | 53.99740 | -14.96311 | 38138 ft | 501 kts | 277° |
| 2026-05-01 12:40 | 54.00327 | -15.08102 | 38142 ft | 500 kts | 273° |
| 2026-05-01 12:40 | 54.00514 | -15.19831 | 38143 ft | 499 kts | 271° |
| 2026-05-01 12:41 | 54.00649 | -15.31624 | 38150 ft | 498 kts | 272° |
| 2026-05-01 12:41 | 54.00818 | -15.43387 | 38156 ft | 498 kts | 272° |
| 2026-05-01 12:42 | 54.01006 | -15.55138 | 38156 ft | 497 kts | 272° |
| 2026-05-01 12:42 | 54.01194 | -15.66861 | 38162 ft | 496 kts | 272° |
| 2026-05-01 12:43 | 54.01365 | -15.78578 | 38166 ft | 495 kts | 273° |
| 2026-05-01 12:43 | 54.01523 | -15.90261 | 38172 ft | 494 kts | 273° |
| 2026-05-01 12:44 | 54.01675 | -16.01944 | 38174 ft | 494 kts | 273° |
| 2026-05-01 12:45 | 54.01945 | -16.25271 | 38182 ft | 493 kts | 273° |
| 2026-05-01 12:45 | 54.02069 | -16.36918 | 38187 ft | 493 kts | 273° |
| 2026-05-01 12:46 | 54.02173 | -16.48560 | 38189 ft | 492 kts | 273° |
| 2026-05-01 12:46 | 54.02265 | -16.60204 | 38190 ft | 492 kts | 273° |
| 2026-05-01 12:47 | 54.02347 | -16.71845 | 38195 ft | 492 kts | 272° |
| 2026-05-01 12:47 | 54.02416 | -16.83469 | 38196 ft | 492 kts | 272° |
| 2026-05-01 12:48 | 54.02474 | -16.95097 | 38202 ft | 491 kts | 272° |
| 2026-05-01 12:48 | 54.02522 | -17.06705 | 38202 ft | 491 kts | 272° |
| 2026-05-01 12:49 | 54.02558 | -17.18332 | 38206 ft | 491 kts | 272° |
| 2026-05-01 12:49 | 54.02583 | -17.29856 | 38209 ft | 491 kts | 272° |
| 2026-05-01 12:50 | 54.02597 | -17.41449 | 38210 ft | 490 kts | 272° |
| 2026-05-01 12:50 | 54.02600 | -17.53025 | 38212 ft | 489 kts | 272° |
| 2026-05-01 12:51 | 54.02587 | -17.64586 | 38217 ft | 489 kts | 272° |
| 2026-05-01 12:52 | 54.02553 | -17.81912 | 38221 ft | 488 kts | 272° |
| 2026-05-01 12:52 | 54.02499 | -17.99199 | 38224 ft | 487 kts | 272° |
| 2026-05-01 12:53 | 54.02417 | -18.16469 | 38225 ft | 487 kts | 272° |
| 2026-05-01 12:54 | 54.02361 | -18.26052 | 38229 ft | 487 kts | 271° |
| 2026-05-01 12:54 | 54.02240 | -18.43328 | 38231 ft | 487 kts | 271° |
| 2026-05-01 12:55 | 54.02093 | -18.60608 | 38238 ft | 487 kts | 271° |
| 2026-05-01 12:56 | 54.01982 | -18.72112 | 38236 ft | 487 kts | 271° |
| 2026-05-01 12:56 | 54.01859 | -18.83627 | 38241 ft | 487 kts | 271° |
| 2026-05-01 12:57 | 54.01726 | -18.95112 | 38239 ft | 486 kts | 271° |
| 2026-05-01 12:57 | 54.01505 | -19.12348 | 38244 ft | 486 kts | 271° |
| 2026-05-01 12:58 | 54.01345 | -19.23826 | 38247 ft | 485 kts | 271° |
| 2026-05-01 12:59 | 54.01083 | -19.41007 | 38248 ft | 484 kts | 271° |
| 2026-05-01 12:59 | 54.00798 | -19.58147 | 38252 ft | 483 kts | 271° |
| 2026-05-01 13:00 | 54.00486 | -19.75194 | 38254 ft | 483 kts | 271° |
| 2026-05-01 13:01 | 54.00158 | -19.92290 | 38253 ft | 482 kts | 271° |
| 2026-05-01 13:02 | 53.99581 | -20.09442 | 38274 ft | 489 kts | 267° |
| 2026-05-01 13:07 | 53.91483 | -21.36672 | 38300 ft | 491 kts | 266° |
| 2026-05-01 13:08 | 53.90692 | -21.48185 | 38299 ft | 491 kts | 266° |
| 2026-05-01 13:08 | 53.89892 | -21.59680 | 38300 ft | 491 kts | 266° |
| 2026-05-01 13:09 | 53.89086 | -21.71096 | 38301 ft | 491 kts | 266° |
| 2026-05-01 13:09 | 53.88263 | -21.82588 | 38302 ft | 491 kts | 266° |
| 2026-05-01 13:10 | 53.87430 | -21.94070 | 38304 ft | 491 kts | 266° |
| 2026-05-01 13:10 | 53.86586 | -22.05546 | 38310 ft | 491 kts | 266° |
| 2026-05-01 13:11 | 53.85732 | -22.17002 | 38314 ft | 490 kts | 265° |
| 2026-05-01 13:11 | 53.84867 | -22.28461 | 38315 ft | 490 kts | 265° |
| 2026-05-01 13:12 | 53.83991 | -22.39910 | 38319 ft | 490 kts | 265° |
| 2026-05-01 13:12 | 53.83103 | -22.51368 | 38318 ft | 490 kts | 265° |
| 2026-05-01 13:13 | 53.82205 | -22.62809 | 38321 ft | 490 kts | 265° |
| 2026-05-01 13:13 | 53.81297 | -22.74234 | 38321 ft | 490 kts | 265° |
| 2026-05-01 13:14 | 53.80378 | -22.85662 | 38328 ft | 490 kts | 265° |
| 2026-05-01 13:14 | 53.79447 | -22.97085 | 38319 ft | 490 kts | 265° |
| 2026-05-01 13:15 | 53.78507 | -23.08493 | 38331 ft | 490 kts | 265° |
| 2026-05-01 13:15 | 53.77557 | -23.19889 | 38329 ft | 490 kts | 265° |
| 2026-05-01 13:16 | 53.76595 | -23.31288 | 38334 ft | 490 kts | 265° |
| 2026-05-01 13:16 | 53.75623 | -23.42673 | 38342 ft | 490 kts | 264° |
| 2026-05-01 13:17 | 53.73645 | -23.65433 | 38338 ft | 490 kts | 264° |
| 2026-05-01 13:18 | 53.72141 | -23.82410 | 38347 ft | 489 kts | 264° |
| 2026-05-01 13:18 | 53.71120 | -23.93774 | 38347 ft | 489 kts | 264° |
| 2026-05-01 13:19 | 53.70089 | -24.05125 | 38349 ft | 489 kts | 264° |
| 2026-05-01 13:20 | 53.68524 | -24.22131 | 38350 ft | 489 kts | 264° |
| 2026-05-01 13:20 | 53.67467 | -24.33459 | 38355 ft | 489 kts | 264° |
| 2026-05-01 13:21 | 53.65861 | -24.50445 | 38356 ft | 489 kts | 264° |
| 2026-05-01 13:21 | 53.64777 | -24.61761 | 38358 ft | 488 kts | 264° |
| 2026-05-01 13:22 | 53.63685 | -24.73047 | 38360 ft | 488 kts | 264° |
| 2026-05-01 13:22 | 53.62581 | -24.84335 | 38362 ft | 488 kts | 264° |
| 2026-05-01 13:23 | 53.61467 | -24.95613 | 38369 ft | 488 kts | 263° |
| 2026-05-01 13:23 | 53.60343 | -25.06880 | 38371 ft | 488 kts | 263° |
| 2026-05-01 13:24 | 53.59210 | -25.18132 | 38371 ft | 487 kts | 263° |
| 2026-05-01 13:25 | 53.57491 | -25.34998 | 38380 ft | 487 kts | 263° |
| 2026-05-01 13:25 | 53.56340 | -25.46141 | 38378 ft | 486 kts | 263° |
| 2026-05-01 13:26 | 53.55173 | -25.57343 | 38380 ft | 486 kts | 263° |
| 2026-05-01 13:26 | 53.53995 | -25.68545 | 38383 ft | 486 kts | 263° |
| 2026-05-01 13:27 | 53.52808 | -25.79725 | 38387 ft | 486 kts | 263° |
| 2026-05-01 13:27 | 53.51007 | -25.96487 | 38390 ft | 486 kts | 263° |
| 2026-05-01 13:28 | 53.49184 | -26.13228 | 38393 ft | 486 kts | 263° |
| 2026-05-01 13:29 | 53.46718 | -26.35516 | 38399 ft | 486 kts | 263° |
| 2026-05-01 13:31 | 53.42936 | -26.68944 | 38409 ft | 486 kts | 263° |
| 2026-05-01 13:32 | 53.39713 | -26.96757 | 38411 ft | 487 kts | 262° |
| 2026-05-01 13:33 | 53.36431 | -27.24489 | 38417 ft | 487 kts | 262° |
| 2026-05-01 13:34 | 53.33749 | -27.46719 | 38433 ft | 487 kts | 262° |
| 2026-05-01 13:35 | 53.31711 | -27.63370 | 38433 ft | 487 kts | 262° |
| 2026-05-01 13:36 | 53.29651 | -27.79998 | 38418 ft | 487 kts | 262° |
| 2026-05-01 13:36 | 53.27568 | -27.96603 | 38432 ft | 487 kts | 262° |
| 2026-05-01 13:37 | 53.26404 | -28.05804 | 38435 ft | 487 kts | 262° |
| 2026-05-01 13:37 | 53.24755 | -28.18723 | 38438 ft | 486 kts | 262° |
| 2026-05-01 13:38 | 53.22621 | -28.35278 | 38439 ft | 486 kts | 262° |
| 2026-05-01 13:39 | 53.21186 | -28.46292 | 38448 ft | 486 kts | 262° |
| 2026-05-01 13:39 | 53.19742 | -28.57303 | 38445 ft | 486 kts | 262° |
| 2026-05-01 13:40 | 53.18287 | -28.68307 | 38446 ft | 485 kts | 262° |
| 2026-05-01 13:40 | 53.16824 | -28.79288 | 38451 ft | 485 kts | 261° |
| 2026-05-01 13:41 | 53.15601 | -28.88401 | 38454 ft | 485 kts | 261° |
| 2026-05-01 13:41 | 53.13879 | -29.01142 | 38453 ft | 485 kts | 261° |
| 2026-05-01 13:42 | 53.12387 | -29.12085 | 38458 ft | 485 kts | 261° |
| 2026-05-01 13:42 | 53.11131 | -29.21243 | 38455 ft | 484 kts | 261° |
| 2026-05-01 13:43 | 53.09631 | -29.32100 | 38459 ft | 484 kts | 261° |
| 2026-05-01 13:43 | 53.08113 | -29.43012 | 38463 ft | 484 kts | 261° |
| 2026-05-01 13:44 | 53.06584 | -29.53926 | 38461 ft | 484 kts | 261° |
| 2026-05-01 13:44 | 53.05046 | -29.64820 | 38464 ft | 484 kts | 261° |
| 2026-05-01 13:45 | 53.03498 | -29.75712 | 38468 ft | 484 kts | 260° |
| 2026-05-01 13:45 | 53.01942 | -29.86579 | 38467 ft | 484 kts | 260° |
| 2026-05-01 13:46 | 53.00391 | -29.97454 | 38465 ft | 483 kts | 262° |
| 2026-05-01 13:46 | 52.99500 | -30.08455 | 38470 ft | 480 kts | 267° |
| 2026-05-01 13:47 | 52.98854 | -30.19468 | 38471 ft | 479 kts | 268° |
| 2026-05-01 13:47 | 52.98239 | -30.30485 | 38472 ft | 479 kts | 268° |
| 2026-05-01 13:48 | 52.97601 | -30.41488 | 38479 ft | 479 kts | 268° |
| 2026-05-01 13:48 | 52.96941 | -30.52502 | 38478 ft | 479 kts | 267° |
| 2026-05-01 13:49 | 52.96267 | -30.63506 | 38480 ft | 479 kts | 267° |
| 2026-05-01 13:49 | 52.95583 | -30.74507 | 38482 ft | 479 kts | 267° |
| 2026-05-01 13:50 | 52.94895 | -30.85411 | 38480 ft | 479 kts | 267° |
| 2026-05-01 13:50 | 52.94193 | -30.96398 | 38483 ft | 479 kts | 266° |
| 2026-05-01 13:51 | 52.93480 | -31.07379 | 38489 ft | 479 kts | 266° |
| 2026-05-01 13:51 | 52.92756 | -31.18362 | 38487 ft | 479 kts | 266° |
| 2026-05-01 13:52 | 52.92023 | -31.29335 | 38490 ft | 479 kts | 266° |
| 2026-05-01 13:52 | 52.91280 | -31.40299 | 38493 ft | 479 kts | 266° |
| 2026-05-01 13:53 | 52.90528 | -31.51260 | 38493 ft | 479 kts | 266° |
| 2026-05-01 13:53 | 52.89377 | -31.67727 | 38497 ft | 480 kts | 265° |
| 2026-05-01 13:54 | 52.88597 | -31.78697 | 38492 ft | 480 kts | 265° |
| 2026-05-01 13:54 | 52.87808 | -31.89659 | 38495 ft | 480 kts | 265° |
| 2026-05-01 13:55 | 52.87008 | -32.00630 | 38498 ft | 480 kts | 265° |
| 2026-05-01 13:55 | 52.86198 | -32.11591 | 38500 ft | 480 kts | 265° |
| 2026-05-01 13:56 | 52.85377 | -32.22548 | 38501 ft | 480 kts | 265° |
| 2026-05-01 13:56 | 52.84546 | -32.33511 | 38503 ft | 480 kts | 264° |
| 2026-05-01 13:57 | 52.83706 | -32.44465 | 38504 ft | 480 kts | 264° |
| 2026-05-01 13:57 | 52.82854 | -32.55419 | 38498 ft | 480 kts | 264° |
| 2026-05-01 13:58 | 52.81993 | -32.66371 | 38502 ft | 480 kts | 264° |
| 2026-05-01 13:58 | 52.81121 | -32.77320 | 38508 ft | 481 kts | 264° |
| 2026-05-01 13:59 | 52.80240 | -32.88269 | 38518 ft | 481 kts | 264° |
| 2026-05-01 13:59 | 52.79347 | -32.99218 | 38513 ft | 481 kts | 263° |
| 2026-05-01 14:00 | 52.78450 | -33.10100 | 38513 ft | 481 kts | 263° |
| 2026-05-01 14:00 | 52.77538 | -33.21032 | 38503 ft | 481 kts | 263° |
| 2026-05-01 14:01 | 52.76615 | -33.31973 | 38517 ft | 481 kts | 263° |
| 2026-05-01 14:01 | 52.75681 | -33.42915 | 38510 ft | 481 kts | 263° |
| 2026-05-01 14:02 | 52.74736 | -33.53867 | 38509 ft | 481 kts | 263° |
| 2026-05-01 14:02 | 52.73782 | -33.64801 | 38513 ft | 482 kts | 262° |
| 2026-05-01 14:03 | 52.72818 | -33.75737 | 38526 ft | 482 kts | 262° |
| 2026-05-01 14:03 | 52.71843 | -33.86672 | 38520 ft | 482 kts | 262° |
| 2026-05-01 14:04 | 52.70858 | -33.97595 | 38519 ft | 482 kts | 262° |
| 2026-05-01 14:04 | 52.70026 | -34.06747 | 38522 ft | 482 kts | 262° |
| 2026-05-01 14:05 | 52.68858 | -34.19439 | 38515 ft | 482 kts | 262° |
| 2026-05-01 14:05 | 52.67843 | -34.30356 | 38524 ft | 482 kts | 262° |
| 2026-05-01 14:06 | 52.66819 | -34.41255 | 38527 ft | 482 kts | 261° |
| 2026-05-01 14:06 | 52.65784 | -34.52161 | 38526 ft | 482 kts | 261° |
| 2026-05-01 14:07 | 52.64739 | -34.63061 | 38525 ft | 482 kts | 261° |
| 2026-05-01 14:08 | 52.63150 | -34.79421 | 38524 ft | 483 kts | 261° |
| 2026-05-01 14:08 | 52.62085 | -34.90258 | 38529 ft | 483 kts | 261° |
| 2026-05-01 14:09 | 52.61003 | -35.01156 | 38531 ft | 483 kts | 261° |
| 2026-05-01 14:09 | 52.59910 | -35.12063 | 38532 ft | 483 kts | 260° |
| 2026-05-01 14:10 | 52.58805 | -35.22984 | 38530 ft | 484 kts | 260° |
| 2026-05-01 14:10 | 52.57691 | -35.33892 | 38533 ft | 484 kts | 260° |
| 2026-05-01 14:11 | 52.56564 | -35.44818 | 38528 ft | 485 kts | 259° |
| 2026-05-01 14:11 | 52.54854 | -35.61201 | 38535 ft | 485 kts | 259° |
| 2026-05-01 14:12 | 52.53700 | -35.72129 | 38534 ft | 486 kts | 259° |
| 2026-05-01 14:12 | 52.52535 | -35.83065 | 38535 ft | 486 kts | 259° |
| 2026-05-01 14:13 | 52.51559 | -35.92153 | 38530 ft | 487 kts | 259° |
| 2026-05-01 14:13 | 52.50171 | -36.04954 | 38533 ft | 487 kts | 259° |
| 2026-05-01 14:14 | 52.48979 | -36.15832 | 38534 ft | 487 kts | 259° |
| 2026-05-01 14:14 | 52.47771 | -36.26770 | 38537 ft | 488 kts | 258° |
| 2026-05-01 14:15 | 52.46552 | -36.37710 | 38533 ft | 488 kts | 258° |
| 2026-05-01 14:15 | 52.45321 | -36.48656 | 38542 ft | 488 kts | 258° |
| 2026-05-01 14:16 | 52.44080 | -36.59602 | 38529 ft | 489 kts | 258° |
| 2026-05-01 14:16 | 52.42828 | -36.70542 | 38534 ft | 488 kts | 258° |
| 2026-05-01 14:17 | 52.41566 | -36.81479 | 38538 ft | 488 kts | 258° |
| 2026-05-01 14:17 | 52.40294 | -36.92410 | 38531 ft | 489 kts | 257° |
| 2026-05-01 14:18 | 52.39009 | -37.03350 | 38540 ft | 489 kts | 257° |
| 2026-05-01 14:18 | 52.37934 | -37.12439 | 38536 ft | 490 kts | 257° |
| 2026-05-01 14:19 | 52.36409 | -37.25225 | 38341 ft | 489 kts | 257° |
| 2026-05-01 14:19 | 52.35753 | -37.30691 | 38068 ft | 490 kts | 257° |
| 2026-05-01 14:19 | 52.35093 | -37.36163 | 37798 ft | 491 kts | 257° |
| 2026-05-01 14:20 | 52.34429 | -37.41644 | 37578 ft | 492 kts | 257° |
| 2026-05-01 14:20 | 52.33090 | -37.52627 | 37541 ft | 494 kts | 257° |
| 2026-05-01 14:21 | 52.31739 | -37.63630 | 37538 ft | 494 kts | 256° |
| 2026-05-01 14:21 | 52.30385 | -37.74564 | 37542 ft | 494 kts | 256° |
| 2026-05-01 14:22 | 52.28318 | -37.91084 | 37535 ft | 495 kts | 256° |
| 2026-05-01 14:22 | 52.26926 | -38.02097 | 37536 ft | 496 kts | 256° |
| 2026-05-01 14:23 | 52.25522 | -38.13119 | 37533 ft | 496 kts | 256° |
| 2026-05-01 14:23 | 52.24107 | -38.24142 | 37534 ft | 497 kts | 256° |
| 2026-05-01 14:24 | 52.22679 | -38.35178 | 37537 ft | 497 kts | 255° |
| 2026-05-01 14:24 | 52.21238 | -38.46223 | 37534 ft | 498 kts | 255° |
| 2026-05-01 14:25 | 52.19786 | -38.57271 | 37537 ft | 498 kts | 255° |
| 2026-05-01 14:25 | 52.18322 | -38.68320 | 37540 ft | 499 kts | 255° |
| 2026-05-01 14:26 | 52.16105 | -38.84899 | 37540 ft | 500 kts | 255° |
| 2026-05-01 14:27 | 52.14612 | -38.95953 | 37537 ft | 500 kts | 255° |
| 2026-05-01 14:27 | 52.13108 | -39.07009 | 37534 ft | 501 kts | 255° |
| 2026-05-01 14:28 | 52.10828 | -39.23610 | 37538 ft | 501 kts | 254° |
| 2026-05-01 14:28 | 52.09295 | -39.34671 | 37536 ft | 502 kts | 254° |
| 2026-05-01 14:29 | 52.07759 | -39.45670 | 37536 ft | 502 kts | 254° |
| 2026-05-01 14:30 | 52.04631 | -39.67820 | 37533 ft | 503 kts | 254° |
| 2026-05-01 14:31 | 52.02512 | -39.82647 | 37532 ft | 504 kts | 254° |
| 2026-05-01 14:31 | 52.00916 | -39.93720 | 37533 ft | 504 kts | 254° |
| 2026-05-01 14:32 | 51.99736 | -40.04962 | 37536 ft | 507 kts | 261° |
| 2026-05-01 14:32 | 51.99033 | -40.16286 | 37534 ft | 508 kts | 262° |
| 2026-05-01 14:33 | 51.98402 | -40.27667 | 37531 ft | 503 kts | 262° |
| 2026-05-01 14:33 | 51.97767 | -40.38883 | 37532 ft | 497 kts | 262° |
| 2026-05-01 14:34 | 51.97106 | -40.50043 | 37532 ft | 497 kts | 262° |
| 2026-05-01 14:34 | 51.96429 | -40.61187 | 37530 ft | 497 kts | 262° |
| 2026-05-01 14:35 | 51.95740 | -40.72326 | 37529 ft | 497 kts | 262° |
| 2026-05-01 14:35 | 51.95042 | -40.83468 | 37527 ft | 497 kts | 262° |
| 2026-05-01 14:36 | 51.94335 | -40.94594 | 37528 ft | 496 kts | 262° |
| 2026-05-01 14:36 | 51.93622 | -41.05650 | 37529 ft | 496 kts | 262° |
| 2026-05-01 14:37 | 51.92895 | -41.16751 | 37529 ft | 496 kts | 262° |
| 2026-05-01 14:37 | 51.92157 | -41.27851 | 37529 ft | 495 kts | 261° |
| 2026-05-01 14:38 | 51.91409 | -41.38958 | 37526 ft | 495 kts | 261° |
| 2026-05-01 14:38 | 51.90651 | -41.50041 | 37525 ft | 495 kts | 261° |
| 2026-05-01 14:39 | 51.89884 | -41.61106 | 37526 ft | 494 kts | 261° |
| 2026-05-01 14:39 | 51.89107 | -41.72160 | 37526 ft | 494 kts | 261° |
| 2026-05-01 14:40 | 51.88320 | -41.83198 | 37524 ft | 494 kts | 261° |
| 2026-05-01 14:40 | 51.87522 | -41.94252 | 37522 ft | 497 kts | 261° |
| 2026-05-01 14:41 | 51.86707 | -42.05374 | 37523 ft | 498 kts | 261° |
| 2026-05-01 14:41 | 51.85883 | -42.16496 | 37522 ft | 498 kts | 261° |
| 2026-05-01 14:42 | 51.85050 | -42.27600 | 37521 ft | 497 kts | 261° |
| 2026-05-01 14:42 | 51.84206 | -42.38692 | 37520 ft | 496 kts | 261° |
| 2026-05-01 14:43 | 51.83358 | -42.49689 | 37520 ft | 496 kts | 261° |
| 2026-05-01 14:43 | 51.82496 | -42.60735 | 37517 ft | 495 kts | 261° |
| 2026-05-01 14:44 | 51.81624 | -42.71785 | 37518 ft | 495 kts | 261° |
| 2026-05-01 14:44 | 51.80298 | -42.88318 | 37517 ft | 494 kts | 261° |
| 2026-05-01 14:45 | 51.78950 | -43.04823 | 37511 ft | 493 kts | 261° |
| 2026-05-01 14:46 | 51.78041 | -43.15793 | 37512 ft | 493 kts | 261° |
| 2026-05-01 14:46 | 51.76666 | -43.32154 | 37515 ft | 492 kts | 261° |
| 2026-05-01 14:47 | 51.75733 | -43.43096 | 37514 ft | 492 kts | 261° |
| 2026-05-01 14:48 | 51.74317 | -43.59472 | 37511 ft | 491 kts | 261° |
| 2026-05-01 14:48 | 51.72869 | -43.75942 | 37511 ft | 496 kts | 260° |
| 2026-05-01 14:49 | 51.70894 | -43.97981 | 37512 ft | 496 kts | 260° |
| 2026-05-01 14:50 | 51.68884 | -44.19945 | 37511 ft | 495 kts | 260° |
| 2026-05-01 14:51 | 51.67349 | -44.36406 | 37513 ft | 494 kts | 260° |
| 2026-05-01 14:52 | 51.65794 | -44.52820 | 37510 ft | 494 kts | 260° |
| 2026-05-01 14:53 | 51.64218 | -44.69205 | 37504 ft | 494 kts | 259° |
| 2026-05-01 14:53 | 51.63154 | -44.80124 | 37502 ft | 493 kts | 259° |
| 2026-05-01 14:54 | 51.62089 | -44.90957 | 37505 ft | 493 kts | 259° |
| 2026-05-01 14:54 | 51.61007 | -45.01852 | 37498 ft | 493 kts | 259° |
| 2026-05-01 14:55 | 51.59913 | -45.12756 | 37496 ft | 493 kts | 259° |
| 2026-05-01 14:55 | 51.58812 | -45.23628 | 37504 ft | 493 kts | 259° |
| 2026-05-01 14:56 | 51.57700 | -45.34498 | 37504 ft | 493 kts | 259° |
| 2026-05-01 14:56 | 51.56578 | -45.45367 | 37504 ft | 493 kts | 259° |
| 2026-05-01 14:57 | 51.55448 | -45.56216 | 37496 ft | 492 kts | 259° |
| 2026-05-01 14:57 | 51.53734 | -45.72478 | 37497 ft | 492 kts | 258° |
| 2026-05-01 14:58 | 51.52577 | -45.83325 | 37503 ft | 492 kts | 258° |
| 2026-05-01 14:58 | 51.51411 | -45.94158 | 37505 ft | 492 kts | 258° |
| 2026-05-01 14:59 | 51.50236 | -46.04982 | 37491 ft | 492 kts | 258° |
| 2026-05-01 14:59 | 51.49051 | -46.15797 | 37502 ft | 492 kts | 258° |
| 2026-05-01 15:00 | 51.47257 | -46.31993 | 37491 ft | 492 kts | 258° |
| 2026-05-01 15:01 | 51.46047 | -46.42790 | 37493 ft | 492 kts | 258° |
| 2026-05-01 15:01 | 51.44829 | -46.53572 | 37488 ft | 492 kts | 258° |
| 2026-05-01 15:02 | 51.43600 | -46.64362 | 37489 ft | 492 kts | 258° |
| 2026-05-01 15:02 | 51.42361 | -46.75137 | 37488 ft | 492 kts | 258° |
| 2026-05-01 15:03 | 51.41112 | -46.85914 | 37488 ft | 492 kts | 258° |
| 2026-05-01 15:03 | 51.39861 | -46.96610 | 37488 ft | 492 kts | 258° |
| 2026-05-01 15:04 | 51.38592 | -47.07376 | 37484 ft | 492 kts | 258° |
| 2026-05-01 15:04 | 51.37312 | -47.18151 | 37484 ft | 492 kts | 257° |
| 2026-05-01 15:05 | 51.36022 | -47.28915 | 37483 ft | 492 kts | 257° |
| 2026-05-01 15:05 | 51.34723 | -47.39666 | 37483 ft | 492 kts | 257° |
| 2026-05-01 15:06 | 51.33414 | -47.50412 | 37483 ft | 492 kts | 257° |
| 2026-05-01 15:06 | 51.32093 | -47.61164 | 37482 ft | 493 kts | 257° |
| 2026-05-01 15:07 | 51.30763 | -47.71915 | 37482 ft | 493 kts | 257° |
| 2026-05-01 15:07 | 51.29423 | -47.82649 | 37483 ft | 493 kts | 257° |
| 2026-05-01 15:08 | 51.28070 | -47.93407 | 37480 ft | 493 kts | 257° |
| 2026-05-01 15:08 | 51.26710 | -48.04141 | 37476 ft | 494 kts | 257° |
| 2026-05-01 15:09 | 51.25336 | -48.14897 | 37476 ft | 494 kts | 257° |
| 2026-05-01 15:09 | 51.23963 | -48.25562 | 37477 ft | 494 kts | 257° |
| 2026-05-01 15:10 | 51.22571 | -48.36295 | 37473 ft | 494 kts | 257° |
| 2026-05-01 15:10 | 51.20461 | -48.52401 | 37469 ft | 495 kts | 257° |
| 2026-05-01 15:11 | 51.18328 | -48.68504 | 37467 ft | 495 kts | 257° |
| 2026-05-01 15:12 | 51.16894 | -48.79232 | 37468 ft | 495 kts | 257° |
| 2026-05-01 15:12 | 51.14721 | -48.95336 | 37467 ft | 496 kts | 257° |
| 2026-05-01 15:14 | 51.11046 | -49.22171 | 37463 ft | 496 kts | 256° |
| 2026-05-01 15:14 | 51.08811 | -49.38256 | 37460 ft | 497 kts | 256° |
| 2026-05-01 15:15 | 51.05793 | -49.59702 | 37453 ft | 497 kts | 256° |
| 2026-05-01 15:16 | 51.02740 | -49.81078 | 37448 ft | 498 kts | 256° |
| 2026-05-01 15:18 | 50.98208 | -50.07590 | 37439 ft | 498 kts | 249° |
| 2026-05-01 15:19 | 50.93675 | -50.26413 | 37438 ft | 499 kts | 248° |
| 2026-05-01 15:19 | 50.89918 | -50.41806 | 37436 ft | 500 kts | 248° |
| 2026-05-01 15:20 | 50.86154 | -50.57206 | 37431 ft | 499 kts | 248° |
| 2026-05-01 15:21 | 50.83641 | -50.67445 | 37427 ft | 499 kts | 248° |
| 2026-05-01 15:21 | 50.81115 | -50.77676 | 37426 ft | 499 kts | 248° |
| 2026-05-01 15:22 | 50.77309 | -50.93004 | 37423 ft | 499 kts | 248° |
| 2026-05-01 15:22 | 50.74763 | -51.03196 | 37423 ft | 499 kts | 248° |
| 2026-05-01 15:23 | 50.72210 | -51.13375 | 37421 ft | 499 kts | 248° |
| 2026-05-01 15:23 | 50.69646 | -51.23546 | 37419 ft | 499 kts | 248° |
| 2026-05-01 15:24 | 50.67074 | -51.33703 | 37417 ft | 499 kts | 248° |
| 2026-05-01 15:24 | 50.64495 | -51.43842 | 37414 ft | 498 kts | 248° |
| 2026-05-01 15:25 | 50.61910 | -51.53962 | 37412 ft | 498 kts | 248° |
| 2026-05-01 15:25 | 50.59320 | -51.64057 | 37410 ft | 497 kts | 248° |
| 2026-05-01 15:26 | 50.56736 | -51.74082 | 37407 ft | 497 kts | 248° |
| 2026-05-01 15:26 | 50.54131 | -51.84141 | 37401 ft | 497 kts | 247° |
| 2026-05-01 15:27 | 50.51520 | -51.94185 | 37397 ft | 496 kts | 247° |
| 2026-05-01 15:28 | 50.47004 | -52.08778 | 37396 ft | 495 kts | 241° |
| 2026-05-01 15:28 | 50.43717 | -52.18256 | 37394 ft | 494 kts | 240° |
| 2026-05-01 15:29 | 50.38744 | -52.32435 | 37388 ft | 494 kts | 240° |
| 2026-05-01 15:30 | 50.32134 | -52.51270 | 37380 ft | 493 kts | 240° |
| 2026-05-01 15:31 | 50.22209 | -52.79326 | 37375 ft | 492 kts | 240° |
| 2026-05-01 15:32 | 50.15528 | -52.98033 | 37365 ft | 491 kts | 240° |
| 2026-05-01 15:34 | 50.05528 | -53.25786 | 37358 ft | 490 kts | 240° |